MSC Barbara — HODU — position and weather

sailwx.info

Track history (hours):
 
Tides and Currents Weather Stations Pressure Air Temp Water Temp Dewpoint Dewpoint Depression Visibility Wind Speed Wind Dir Waves Ship Positions

MSC Barbara

Last reported at 2014-Aug-22 15:22 UTC. Time now 2014-Aug-30 06:35 UTC.
Position N 36°50' W 009°58'.

; draft 13.2 m.

Type: Ship (hazmat cat D). MMSI: 353775000.

Date/timePositionNaut miles runAvg speedWind from/ knotsBaromVisibWave heightAir tempDewpointWater temp
2014-Aug-22 15:22N 36°50' W 009°58'1619.4
2014-Aug-22 14:33N 37°04' W 009°50'1918.9
2014-Aug-22 13:33N 37°19' W 009°35'2219.5
2014-Aug-22 12:25N 37°34' W 009°14'1719.5
2014-Aug-22 11:33N 37°46' W 008°60'1210.9
2014-Aug-22 10:27N 37°56' W 008°51'0 0.0
2014-Aug-22 07:07N 37°56' W 008°51'0 0.0
2014-Aug-22 05:24N 37°56' W 008°51'1 0.1
2014-Aug-21 19:15N 37°55' W 008°51'3 3.8
2014-Aug-21 18:22N 37°52' W 008°51'8 8.6
2014-Aug-21 17:27N 37°50' W 009°01'1 0.6
2014-Aug-21 15:29N 37°51' W 009°02'6515.5
2014-Aug-21 11:16N 38°35' W 010°04'77916.2
2014-Aug-19 11:16N 49°39' W 000°36'1419.5
2014-Aug-19 10:33N 49°34' W 000°17'1414.2
2014-Aug-19 09:33N 49°29' E 000°04'3 3.2
2014-Aug-19 08:33N 49°28' E 000°08'0 0.0
2014-Aug-19 07:33N 49°28' E 000°08'0 0.0
2014-Aug-19 06:33N 49°28' E 000°08'0 0.0
2014-Aug-19 05:33N 49°28' E 000°08'0 0.0
2014-Aug-19 04:32N 49°28' E 000°08'0 0.0
2014-Aug-19 03:32N 49°28' E 000°08'0 0.0
2014-Aug-19 02:31N 49°28' E 000°08'0 0.0
2014-Aug-19 01:31N 49°28' E 000°08'0 0.0
2014-Aug-19 00:31N 49°28' E 000°08'0 0.0
2014-Aug-18 23:33N 49°28' E 000°08'0 0.0
2014-Aug-18 22:33N 49°28' E 000°08'0 0.0
2014-Aug-18 21:32N 49°28' E 000°08'0 0.0
2014-Aug-18 20:32N 49°28' E 000°08'0 0.0
2014-Aug-18 19:31N 49°28' E 000°08'0 0.0
2014-Aug-18 18:31N 49°28' E 000°08'0 0.0
2014-Aug-18 17:27N 49°28' E 000°08'0 0.0
2014-Aug-18 16:33N 49°28' E 000°08'0 0.0
2014-Aug-18 15:33N 49°28' E 000°08'0 0.0
2014-Aug-18 14:32N 49°28' E 000°08'0 0.0
2014-Aug-18 13:32N 49°28' E 000°08'0 0.1
2014-Aug-18 12:31N 49°28' E 000°08'0 0.0
2014-Aug-18 11:31N 49°28' E 000°08'0 0.0
2014-Aug-18 10:34N 49°28' E 000°08'2 2.5
2014-Aug-18 09:34N 49°29' E 000°05'1111.3
2014-Aug-18 08:34N 49°33' W 000°11'1313.0
2014-Aug-18 07:33N 49°46' W 000°10'5012.5
2014-Aug-18 03:33N 50°32' E 000°19'1414.0
2014-Aug-18 02:33N 50°37' E 000°40'1414.3
2014-Aug-18 01:33N 50°46' E 000°57'1815.5
2014-Aug-18 00:25N 50°58' E 001°17'7412.7
2014-Aug-17 18:33N 51°24' E 003°09'1515.5
2014-Aug-17 17:33N 51°26' E 003°33'8 8.1
2014-Aug-17 16:33N 51°22' E 003°45'1010.1
2014-Aug-17 15:33N 51°26' E 003°60'9 9.2
2014-Aug-17 14:34N 51°23' E 004°13'3 3.2
2014-Aug-17 13:34N 51°21' E 004°17'1 0.6
2014-Aug-17 12:33N 51°20' E 004°18'1 1.1
2014-Aug-17 11:29N 51°19' E 004°19'0 0.0
2014-Aug-17 10:31N 51°19' E 004°19'0 0.0
2014-Aug-17 09:31N 51°19' E 004°19'0 0.0
2014-Aug-17 08:34N 51°19' E 004°19'0 0.0
2014-Aug-17 07:33N 51°19' E 004°19'0 0.0
2014-Aug-17 06:24N 51°19' E 004°19'0 0.0
2014-Aug-17 05:32N 51°19' E 004°19'0 0.0
2014-Aug-17 04:32N 51°19' E 004°19'0 0.0
2014-Aug-17 03:31N 51°19' E 004°19'0 0.0
2014-Aug-17 02:33N 51°19' E 004°19'0 0.0
2014-Aug-17 01:33N 51°19' E 004°19'0 0.0
2014-Aug-17 00:33N 51°19' E 004°19'0 0.0
2014-Aug-16 23:27N 51°19' E 004°19'0 0.0
2014-Aug-16 22:32N 51°19' E 004°19'0 0.0
2014-Aug-16 21:32N 51°19' E 004°19'0 0.0
2014-Aug-16 20:28N 51°19' E 004°19'0 0.0
2014-Aug-16 19:25N 51°19' E 004°19'0 0.0
2014-Aug-16 18:30N 51°19' E 004°19'0 0.0
2014-Aug-16 17:30N 51°19' E 004°19'0 0.0
2014-Aug-16 16:33N 51°19' E 004°19'0 0.0
2014-Aug-16 15:32N 51°19' E 004°19'0 0.0
2014-Aug-16 14:32N 51°19' E 004°19'0 0.0
2014-Aug-16 13:32N 51°19' E 004°19'0 0.0
2014-Aug-16 12:33N 51°19' E 004°19'0 0.0
2014-Aug-16 11:33N 51°19' E 004°19'0 0.0
2014-Aug-16 10:33N 51°19' E 004°19'1 1.3
2014-Aug-16 09:34N 51°21' E 004°18'0 0.4
2014-Aug-16 08:34N 51°21' E 004°17'5 5.2
2014-Aug-16 07:33N 51°23' E 004°10'9 8.9
2014-Aug-16 06:33N 51°22' E 003°56'1111.5
2014-Aug-16 05:33N 51°26' E 003°39'9 9.1
2014-Aug-16 04:33N 51°31' E 003°26'1413.8
2014-Aug-16 03:34N 51°43' E 003°14'7 6.3
2014-Aug-16 02:30N 51°49' E 003°17'9 9.2
2014-Aug-16 01:33N 51°57' E 003°20'1514.7
2014-Aug-16 00:32N 52°03' E 003°42'1111.5
2014-Aug-15 23:33N 52°00' E 004°00'4 3.5
2014-Aug-15 22:31N 51°58' E 004°04'0 0.0
2014-Aug-15 21:33N 51°58' E 004°04'0 0.0
2014-Aug-15 20:33N 51°58' E 004°04'0 0.0
2014-Aug-15 19:32N 51°58' E 004°04'0 0.0
2014-Aug-15 18:32N 51°58' E 004°04'0 0.0
2014-Aug-15 17:32N 51°58' E 004°04'0 0.0
2014-Aug-15 16:31N 51°58' E 004°04'0 0.0
2014-Aug-15 15:31N 51°58' E 004°04'0 0.0
2014-Aug-15 14:33N 51°58' E 004°04'0 0.0
2014-Aug-15 13:33N 51°58' E 004°04'0 0.0
2014-Aug-15 12:32N 51°58' E 004°04'0 0.0
2014-Aug-15 11:29N 51°58' E 004°04'0 0.0
2014-Aug-15 10:32N 51°58' E 004°04'0 0.0
2014-Aug-15 09:31N 51°58' E 004°04'0 0.0
2014-Aug-15 08:28N 51°58' E 004°04'0 0.0
2014-Aug-15 07:30N 51°58' E 004°04'0 0.0
2014-Aug-15 06:33N 51°58' E 004°04'0 0.0
2014-Aug-15 05:26N 51°58' E 004°04'4 4.5
2014-Aug-15 04:34N 52°00' E 003°59'1010.1
2014-Aug-15 03:33N 51°58' E 003°43'6017.7
2014-Aug-15 00:10N 51°52' E 002°06'1117.5
2014-Aug-14 23:33N 51°48' E 001°51'1312.6
2014-Aug-14 22:33N 51°55' E 001°34'10 9.9
2014-Aug-14 21:33N 51°57' E 001°18'0 0.1
2014-Aug-14 20:33N 51°57' E 001°18'0 0.0
2014-Aug-14 19:32N 51°57' E 001°18'0 0.0
2014-Aug-14 18:32N 51°57' E 001°18'0 0.0
2014-Aug-14 17:31N 51°57' E 001°18'0 0.0
2014-Aug-14 16:31N 51°57' E 001°18'0 0.0
2014-Aug-14 15:31N 51°57' E 001°18'0 0.0
2014-Aug-14 14:33N 51°57' E 001°18'0 0.0
2014-Aug-14 13:33N 51°57' E 001°18'0 0.0
2014-Aug-14 12:32N 51°57' E 001°18'0 0.0
2014-Aug-14 11:32N 51°57' E 001°18'0 0.0
2014-Aug-14 10:31N 51°57' E 001°18'0 0.0
2014-Aug-14 09:31N 51°57' E 001°18'0 0.0
2014-Aug-14 08:31N 51°57' E 001°18'0 0.0
2014-Aug-14 07:33N 51°57' E 001°18'0 0.0
2014-Aug-14 06:33N 51°57' E 001°18'0 0.0
2014-Aug-14 05:32N 51°57' E 001°18'0 0.0
2014-Aug-14 04:32N 51°57' E 001°18'0 0.0
2014-Aug-14 03:31N 51°57' E 001°18'0 0.0
2014-Aug-14 02:31N 51°57' E 001°18'0 0.0
2014-Aug-14 01:31N 51°57' E 001°18'0 0.0
2014-Aug-14 00:33N 51°57' E 001°18'0 0.0
2014-Aug-13 23:33N 51°57' E 001°18'0 0.0
2014-Aug-13 22:32N 51°57' E 001°18'0 0.0
2014-Aug-13 21:32N 51°57' E 001°18'0 0.0
2014-Aug-13 20:31N 51°57' E 001°18'0 0.0
2014-Aug-13 19:31N 51°57' E 001°18'0 0.0
2014-Aug-13 18:31N 51°57' E 001°18'0 0.1
2014-Aug-13 17:33N 51°57' E 001°18'7 7.4
2014-Aug-13 16:34N 51°56' E 001°30'9 9.2
2014-Aug-13 15:33N 51°52' E 001°43'6 6.1
2014-Aug-13 14:33N 51°58' E 001°46'3 3.4
2014-Aug-13 13:33N 51°55' E 001°48'6 6.5
2014-Aug-13 12:33N 51°48' E 001°49'5 5.4
2014-Aug-13 11:33N 51°43' E 001°49'6 5.9
2014-Aug-13 10:33N 51°37' E 001°50'7 7.0
2014-Aug-13 09:33N 51°30' E 001°54'6 6.1
2014-Aug-13 08:33N 51°26' E 002°01'10 9.9
2014-Aug-13 07:33N 51°17' E 002°07'1313.3
2014-Aug-13 06:33N 51°09' E 001°49'1514.7
2014-Aug-13 05:34N 50°59' E 001°33'3615.6
2014-Aug-13 03:17N 50°31' E 000°58'1818.0
2014-Aug-13 02:16N 50°26' E 000°31'1318.0
2014-Aug-13 01:34N 50°22' E 000°12'  
Track history (hours):
 
Tides and Currents Weather Stations Pressure Air Temp Water Temp Dewpoint Dewpoint Depression Visibility Wind Speed Wind Dir Waves Ship Positions

MSC Barbara

Last reported at 2014-Aug-22 15:22 UTC. Time now 2014-Aug-30 06:35 UTC.
Position N 36°50' W 009°58'.

; draft 13.2 m.

Type: Ship (hazmat cat D). MMSI: 353775000.

Date/timePositionNaut miles runAvg speedWind from/ knotsBaromVisibWave heightAir tempDewpointWater temp
2014-Aug-22 15:22N 36°50' W 009°58'1619.4
2014-Aug-22 14:33N 37°04' W 009°50'1918.9
2014-Aug-22 13:33N 37°19' W 009°35'2219.5
2014-Aug-22 12:25N 37°34' W 009°14'1719.5
2014-Aug-22 11:33N 37°46' W 008°60'1210.9
2014-Aug-22 10:27N 37°56' W 008°51'0 0.0
2014-Aug-22 07:07N 37°56' W 008°51'0 0.0
2014-Aug-22 05:24N 37°56' W 008°51'1 0.1
2014-Aug-21 19:15N 37°55' W 008°51'3 3.8
2014-Aug-21 18:22N 37°52' W 008°51'8 8.6
2014-Aug-21 17:27N 37°50' W 009°01'1 0.6
2014-Aug-21 15:29N 37°51' W 009°02'6515.5
2014-Aug-21 11:16N 38°35' W 010°04'77916.2
2014-Aug-19 11:16N 49°39' W 000°36'1419.5
2014-Aug-19 10:33N 49°34' W 000°17'1414.2
2014-Aug-19 09:33N 49°29' E 000°04'3 3.2
2014-Aug-19 08:33N 49°28' E 000°08'0 0.0
2014-Aug-19 07:33N 49°28' E 000°08'0 0.0
2014-Aug-19 06:33N 49°28' E 000°08'0 0.0
2014-Aug-19 05:33N 49°28' E 000°08'0 0.0
2014-Aug-19 04:32N 49°28' E 000°08'0 0.0
2014-Aug-19 03:32N 49°28' E 000°08'0 0.0
2014-Aug-19 02:31N 49°28' E 000°08'0 0.0
2014-Aug-19 01:31N 49°28' E 000°08'0 0.0
2014-Aug-19 00:31N 49°28' E 000°08'0 0.0
2014-Aug-18 23:33N 49°28' E 000°08'0 0.0
2014-Aug-18 22:33N 49°28' E 000°08'0 0.0
2014-Aug-18 21:32N 49°28' E 000°08'0 0.0
2014-Aug-18 20:32N 49°28' E 000°08'0 0.0
2014-Aug-18 19:31N 49°28' E 000°08'0 0.0
2014-Aug-18 18:31N 49°28' E 000°08'0 0.0
2014-Aug-18 17:27N 49°28' E 000°08'0 0.0
2014-Aug-18 16:33N 49°28' E 000°08'0 0.0
2014-Aug-18 15:33N 49°28' E 000°08'0 0.0
2014-Aug-18 14:32N 49°28' E 000°08'0 0.0
2014-Aug-18 13:32N 49°28' E 000°08'0 0.1
2014-Aug-18 12:31N 49°28' E 000°08'0 0.0
2014-Aug-18 11:31N 49°28' E 000°08'0 0.0
2014-Aug-18 10:34N 49°28' E 000°08'2 2.5
2014-Aug-18 09:34N 49°29' E 000°05'1111.3
2014-Aug-18 08:34N 49°33' W 000°11'1313.0
2014-Aug-18 07:33N 49°46' W 000°10'5012.5
2014-Aug-18 03:33N 50°32' E 000°19'1414.0
2014-Aug-18 02:33N 50°37' E 000°40'1414.3
2014-Aug-18 01:33N 50°46' E 000°57'1815.5
2014-Aug-18 00:25N 50°58' E 001°17'7412.7
2014-Aug-17 18:33N 51°24' E 003°09'1515.5
2014-Aug-17 17:33N 51°26' E 003°33'8 8.1
2014-Aug-17 16:33N 51°22' E 003°45'1010.1
2014-Aug-17 15:33N 51°26' E 003°60'9 9.2
2014-Aug-17 14:34N 51°23' E 004°13'3 3.2
2014-Aug-17 13:34N 51°21' E 004°17'1 0.6
2014-Aug-17 12:33N 51°20' E 004°18'1 1.1
2014-Aug-17 11:29N 51°19' E 004°19'0 0.0
2014-Aug-17 10:31N 51°19' E 004°19'0 0.0
2014-Aug-17 09:31N 51°19' E 004°19'0 0.0
2014-Aug-17 08:34N 51°19' E 004°19'0 0.0
2014-Aug-17 07:33N 51°19' E 004°19'0 0.0
2014-Aug-17 06:24N 51°19' E 004°19'0 0.0
2014-Aug-17 05:32N 51°19' E 004°19'0 0.0
2014-Aug-17 04:32N 51°19' E 004°19'0 0.0
2014-Aug-17 03:31N 51°19' E 004°19'0 0.0
2014-Aug-17 02:33N 51°19' E 004°19'0 0.0
2014-Aug-17 01:33N 51°19' E 004°19'0 0.0
2014-Aug-17 00:33N 51°19' E 004°19'0 0.0
2014-Aug-16 23:27N 51°19' E 004°19'0 0.0
2014-Aug-16 22:32N 51°19' E 004°19'0 0.0
2014-Aug-16 21:32N 51°19' E 004°19'0 0.0
2014-Aug-16 20:28N 51°19' E 004°19'0 0.0
2014-Aug-16 19:25N 51°19' E 004°19'0 0.0
2014-Aug-16 18:30N 51°19' E 004°19'0 0.0
2014-Aug-16 17:30N 51°19' E 004°19'0 0.0
2014-Aug-16 16:33N 51°19' E 004°19'0 0.0
2014-Aug-16 15:32N 51°19' E 004°19'0 0.0
2014-Aug-16 14:32N 51°19' E 004°19'0 0.0
2014-Aug-16 13:32N 51°19' E 004°19'0 0.0
2014-Aug-16 12:33N 51°19' E 004°19'0 0.0
2014-Aug-16 11:33N 51°19' E 004°19'0 0.0
2014-Aug-16 10:33N 51°19' E 004°19'1 1.3
2014-Aug-16 09:34N 51°21' E 004°18'0 0.4
2014-Aug-16 08:34N 51°21' E 004°17'5 5.2
2014-Aug-16 07:33N 51°23' E 004°10'9 8.9
2014-Aug-16 06:33N 51°22' E 003°56'1111.5
2014-Aug-16 05:33N 51°26' E 003°39'9 9.1
2014-Aug-16 04:33N 51°31' E 003°26'1413.8
2014-Aug-16 03:34N 51°43' E 003°14'7 6.3
2014-Aug-16 02:30N 51°49' E 003°17'9 9.2
2014-Aug-16 01:33N 51°57' E 003°20'1514.7
2014-Aug-16 00:32N 52°03' E 003°42'1111.5
2014-Aug-15 23:33N 52°00' E 004°00'4 3.5
2014-Aug-15 22:31N 51°58' E 004°04'0 0.0
2014-Aug-15 21:33N 51°58' E 004°04'0 0.0
2014-Aug-15 20:33N 51°58' E 004°04'0 0.0
2014-Aug-15 19:32N 51°58' E 004°04'0 0.0
2014-Aug-15 18:32N 51°58' E 004°04'0 0.0
2014-Aug-15 17:32N 51°58' E 004°04'0 0.0
2014-Aug-15 16:31N 51°58' E 004°04'0 0.0
2014-Aug-15 15:31N 51°58' E 004°04'0 0.0
2014-Aug-15 14:33N 51°58' E 004°04'0 0.0
2014-Aug-15 13:33N 51°58' E 004°04'0 0.0
2014-Aug-15 12:32N 51°58' E 004°04'0 0.0
2014-Aug-15 11:29N 51°58' E 004°04'0 0.0
2014-Aug-15 10:32N 51°58' E 004°04'0 0.0
2014-Aug-15 09:31N 51°58' E 004°04'0 0.0
2014-Aug-15 08:28N 51°58' E 004°04'0 0.0
2014-Aug-15 07:30N 51°58' E 004°04'0 0.0
2014-Aug-15 06:33N 51°58' E 004°04'0 0.0
2014-Aug-15 05:26N 51°58' E 004°04'4 4.5
2014-Aug-15 04:34N 52°00' E 003°59'1010.1
2014-Aug-15 03:33N 51°58' E 003°43'6017.7
2014-Aug-15 00:10N 51°52' E 002°06'1117.5
2014-Aug-14 23:33N 51°48' E 001°51'1312.6
2014-Aug-14 22:33N 51°55' E 001°34'10 9.9
2014-Aug-14 21:33N 51°57' E 001°18'0 0.1
2014-Aug-14 20:33N 51°57' E 001°18'0 0.0
2014-Aug-14 19:32N 51°57' E 001°18'0 0.0
2014-Aug-14 18:32N 51°57' E 001°18'0 0.0
2014-Aug-14 17:31N 51°57' E 001°18'0 0.0
2014-Aug-14 16:31N 51°57' E 001°18'0 0.0
2014-Aug-14 15:31N 51°57' E 001°18'0 0.0
2014-Aug-14 14:33N 51°57' E 001°18'0 0.0
2014-Aug-14 13:33N 51°57' E 001°18'0 0.0
2014-Aug-14 12:32N 51°57' E 001°18'0 0.0
2014-Aug-14 11:32N 51°57' E 001°18'0 0.0
2014-Aug-14 10:31N 51°57' E 001°18'0 0.0
2014-Aug-14 09:31N 51°57' E 001°18'0 0.0
2014-Aug-14 08:31N 51°57' E 001°18'0 0.0
2014-Aug-14 07:33N 51°57' E 001°18'0 0.0
2014-Aug-14 06:33N 51°57' E 001°18'0 0.0
2014-Aug-14 05:32N 51°57' E 001°18'0 0.0
2014-Aug-14 04:32N 51°57' E 001°18'0 0.0
2014-Aug-14 03:31N 51°57' E 001°18'0 0.0
2014-Aug-14 02:31N 51°57' E 001°18'0 0.0
2014-Aug-14 01:31N 51°57' E 001°18'0 0.0
2014-Aug-14 00:33N 51°57' E 001°18'0 0.0
2014-Aug-13 23:33N 51°57' E 001°18'0 0.0
2014-Aug-13 22:32N 51°57' E 001°18'0 0.0
2014-Aug-13 21:32N 51°57' E 001°18'0 0.0
2014-Aug-13 20:31N 51°57' E 001°18'0 0.0
2014-Aug-13 19:31N 51°57' E 001°18'0 0.0
2014-Aug-13 18:31N 51°57' E 001°18'0 0.1
2014-Aug-13 17:33N 51°57' E 001°18'7 7.4
2014-Aug-13 16:34N 51°56' E 001°30'9 9.2
2014-Aug-13 15:33N 51°52' E 001°43'6 6.1
2014-Aug-13 14:33N 51°58' E 001°46'3 3.4
2014-Aug-13 13:33N 51°55' E 001°48'6 6.5
2014-Aug-13 12:33N 51°48' E 001°49'5 5.4
2014-Aug-13 11:33N 51°43' E 001°49'6 5.9
2014-Aug-13 10:33N 51°37' E 001°50'7 7.0
2014-Aug-13 09:33N 51°30' E 001°54'6 6.1
2014-Aug-13 08:33N 51°26' E 002°01'10 9.9
2014-Aug-13 07:33N 51°17' E 002°07'1313.3
2014-Aug-13 06:33N 51°09' E 001°49'1514.7
2014-Aug-13 05:34N 50°59' E 001°33'3615.6
2014-Aug-13 03:17N 50°31' E 000°58'1818.0
2014-Aug-13 02:16N 50°26' E 000°31'1318.0
2014-Aug-13 01:34N 50°22' E 000°12'  

Dump ship's entire track history